createdAt,value
2023-03-12T00:02:35.408Z,11.97
2023-03-12T00:14:35.328Z,11.96
2023-03-12T00:26:35.353Z,11.95
2023-03-12T00:38:36.402Z,11.94
2023-03-12T00:50:35.485Z,11.93
2023-03-12T01:02:35.359Z,11.91
2023-03-12T01:14:35.338Z,11.89
2023-03-12T01:26:35.449Z,11.90
2023-03-12T01:38:35.334Z,11.89
2023-03-12T01:50:35.334Z,11.88
2023-03-12T02:02:35.417Z,11.86
2023-03-12T02:14:35.332Z,11.85
2023-03-12T02:26:35.320Z,11.85
2023-03-12T02:38:35.319Z,11.83
2023-03-12T02:50:35.334Z,11.82
2023-03-12T03:02:35.343Z,11.80
2023-03-12T03:14:35.389Z,11.80
2023-03-12T03:26:35.395Z,11.79
2023-03-12T03:38:35.335Z,11.77
2023-03-12T03:50:35.422Z,11.77
2023-03-12T04:02:35.330Z,11.76
2023-03-12T04:14:35.334Z,11.75
2023-03-12T04:26:35.334Z,11.73
2023-03-12T04:38:35.348Z,11.73
2023-03-12T04:50:35.361Z,11.72
2023-03-12T05:02:35.390Z,11.71
2023-03-12T05:14:35.426Z,11.69
2023-03-12T05:26:35.357Z,11.69
2023-03-12T05:38:35.371Z,11.67
2023-03-12T05:50:35.340Z,11.67
2023-03-12T06:02:35.389Z,11.66
2023-03-12T06:14:35.445Z,11.65
2023-03-12T06:26:35.334Z,11.64
2023-03-12T06:38:35.322Z,11.63
2023-03-12T06:50:35.325Z,11.62
2023-03-12T07:02:35.519Z,11.62
2023-03-12T07:14:35.708Z,11.62
2023-03-12T07:26:35.333Z,11.59
2023-03-12T07:38:35.473Z,11.61
2023-03-12T07:50:35.464Z,11.60
2023-03-12T08:02:35.398Z,11.59
2023-03-12T08:14:35.444Z,11.57
2023-03-12T08:26:35.337Z,11.59
2023-03-12T08:38:35.537Z,11.58
2023-03-12T08:50:35.345Z,11.59
2023-03-12T09:02:35.346Z,11.60
2023-03-12T09:15:02.928Z,11.61
2023-03-12T09:26:35.337Z,11.63
2023-03-12T09:38:35.346Z,11.66
2023-03-12T09:50:35.345Z,11.72
2023-03-12T10:02:35.321Z,11.71
2023-03-12T10:14:35.325Z,11.76
2023-03-12T10:26:35.398Z,11.79
2023-03-12T10:38:35.342Z,11.82
2023-03-12T10:50:35.452Z,11.90
2023-03-12T11:02:35.432Z,11.92
2023-03-12T11:14:35.325Z,12.03
2023-03-12T11:26:35.418Z,12.09
2023-03-12T11:38:35.424Z,12.15
2023-03-12T11:50:35.337Z,12.30
2023-03-12T12:02:35.409Z,12.37
2023-03-12T12:14:35.334Z,12.33
2023-03-12T12:26:35.471Z,12.33
2023-03-12T12:38:35.335Z,12.34
2023-03-12T12:50:35.351Z,12.37
2023-03-12T13:02:35.332Z,12.36
2023-03-12T13:14:35.343Z,12.36
2023-03-12T13:26:35.339Z,12.39
2023-03-12T13:38:35.404Z,12.42
2023-03-12T13:50:35.373Z,12.40
2023-03-12T14:02:35.461Z,12.40
2023-03-12T14:14:35.367Z,12.46
2023-03-12T14:26:35.345Z,12.45
2023-03-12T14:38:35.458Z,12.43
2023-03-12T14:50:35.350Z,12.44
2023-03-12T15:02:35.331Z,12.42
2023-03-12T15:14:35.416Z,12.43
2023-03-12T15:26:35.357Z,12.45
2023-03-12T15:38:35.342Z,12.44
2023-03-12T15:50:35.418Z,12.42
2023-03-12T16:02:35.468Z,12.39
2023-03-12T16:14:35.461Z,12.40
2023-03-12T16:26:35.421Z,12.39
2023-03-12T16:38:35.350Z,12.37
2023-03-12T16:50:35.362Z,12.36
2023-03-12T17:02:35.456Z,12.33
2023-03-12T17:14:35.438Z,12.33
2023-03-12T17:26:35.342Z,12.32
2023-03-12T17:38:35.455Z,12.30
2023-03-12T17:50:35.461Z,12.29
2023-03-12T18:02:35.448Z,12.28
2023-03-12T18:14:35.343Z,12.27
2023-03-12T18:26:35.416Z,12.26
2023-03-12T18:38:35.352Z,12.24
2023-03-12T18:50:35.461Z,12.23
2023-03-12T19:02:35.536Z,12.21
2023-03-12T19:14:35.451Z,12.19
2023-03-12T19:26:35.383Z,12.18
2023-03-12T19:38:35.349Z,12.18
2023-03-12T19:50:35.407Z,12.17
2023-03-12T20:02:35.571Z,12.15
2023-03-12T20:14:35.417Z,12.14
2023-03-12T20:26:35.339Z,12.13
2023-03-12T20:38:35.789Z,12.11
2023-03-12T20:50:35.350Z,12.11
2023-03-12T21:02:35.635Z,12.09
2023-03-12T21:14:35.422Z,12.08
2023-03-12T21:26:35.413Z,12.07
2023-03-12T21:38:35.471Z,12.06
2023-03-12T21:50:35.342Z,12.05
2023-03-12T22:02:35.391Z,12.04
2023-03-12T22:14:35.437Z,12.03
2023-03-12T22:26:35.473Z,12.02
2023-03-12T22:38:35.467Z,12.00
2023-03-12T22:50:35.409Z,11.99
2023-03-12T23:02:35.337Z,11.98
2023-03-12T23:14:35.457Z,11.96
2023-03-12T23:26:35.405Z,11.95
2023-03-12T23:38:37.469Z,11.95
2023-03-12T23:50:35.373Z,11.94
